Suula — OJKZ — position and weather

sailwx.info

Track history (hours):
 
Tides and Currents Weather Stations Pressure Air Temp Water Temp Dewpoint Dewpoint Depression Visibility Wind Speed Wind Dir Waves Ship Positions

Suula

Last reported at 2018-Apr-24 23:26 UTC. Time now 2018-Apr-26 15:35 UTC.
Position N 60°24' E 019°02'.

Length 140 m; draft 6.5 m.

Type: Tanker. MMSI: 230956996.

Date/timePositionNaut miles runAvg speedWind from/ knotsBaromVisibWave heightAir tempDewpointWater temp
2018-Apr-24 23:26N 60°24' E 019°02'512.7
2018-Apr-24 23:01N 60°19' E 019°01'612.7
2018-Apr-24 22:30N 60°13' E 019°04'612.7
2018-Apr-24 22:01N 60°08' E 019°13'612.6
2018-Apr-24 21:30N 60°03' E 019°21'612.6
2018-Apr-24 21:00N 59°58' E 019°29'612.7
2018-Apr-24 20:30N 59°53' E 019°37'612.6
2018-Apr-24 20:00N 59°48' E 019°45'4211.6
2018-Apr-24 16:22N 59°32' E 021°02'411.9
2018-Apr-24 16:01N 59°32' E 021°11'612.1
2018-Apr-24 15:30N 59°31' E 021°23'612.3
2018-Apr-24 15:00N 59°30' E 021°34'611.9
2018-Apr-24 14:30N 59°30' E 021°46'612.1
2018-Apr-24 14:01N 59°31' E 021°58'612.1
2018-Apr-24 13:31N 59°32' E 022°10'2912.1
2018-Apr-24 11:08N 59°38' E 023°05'212.1
2018-Apr-24 11:00N 59°38' E 023°09'612.2
2018-Apr-24 10:30N 59°39' E 023°20'612.3
2018-Apr-24 10:01N 59°41' E 023°32'612.2
2018-Apr-24 09:30N 59°42' E 023°44'612.3
2018-Apr-24 09:00N 59°44' E 023°56'612.2
2018-Apr-24 08:29N 59°45' E 024°08'612.2
2018-Apr-24 08:00N 59°47' E 024°19'612.3
2018-Apr-24 07:31N 59°48' E 024°31'612.7
2018-Apr-24 07:01N 59°50' E 024°43'712.8
2018-Apr-24 06:29N 59°51' E 024°56'612.9
2018-Apr-24 06:00N 59°52' E 025°08'612.8
2018-Apr-24 05:31N 59°56' E 025°19'612.8
2018-Apr-24 05:01N 59°59' E 025°30'611.1
2018-Apr-24 04:30N 60°04' E 025°35'712.2
2018-Apr-24 03:57N 60°10' E 025°38'5 0.2
2018-Apr-22 16:41N 60°15' E 025°34'413.6
2018-Apr-22 16:24N 60°12' E 025°37'513.8
2018-Apr-22 16:01N 60°07' E 025°35'611.1
2018-Apr-22 15:30N 60°01' E 025°30'0 0.7
2018-Apr-22 14:58N 60°01' E 025°30'0 0.1
2018-Apr-22 14:28N 60°01' E 025°29'0 0.0
2018-Apr-22 13:58N 60°01' E 025°29'0 0.0
2018-Apr-22 13:28N 60°01' E 025°29'0 0.1
2018-Apr-22 12:58N 60°01' E 025°29'0 0.1
2018-Apr-22 12:28N 60°01' E 025°29'0 0.0
2018-Apr-22 11:55N 60°01' E 025°29'0 0.0
2018-Apr-22 11:28N 60°01' E 025°29'0 0.0
2018-Apr-22 10:58N 60°01' E 025°29'0 0.0
2018-Apr-22 10:25N 60°01' E 025°29'0 0.0
2018-Apr-22 09:52N 60°01' E 025°29'0 0.1
2018-Apr-22 09:24N 60°01' E 025°29'1 2.1
2018-Apr-22 08:57N 60°00' E 025°29'510.3
2018-Apr-22 08:30N 59°56' E 025°25'611.4
2018-Apr-22 08:00N 59°52' E 025°17'510.8
2018-Apr-22 07:30N 59°49' E 025°09'611.4
2018-Apr-22 07:00N 59°47' E 024°58'611.4
2018-Apr-22 06:30N 59°46' E 024°47'612.3
2018-Apr-22 06:00N 59°45' E 024°35'612.7
2018-Apr-22 05:30N 59°44' E 024°22'612.5
2018-Apr-22 05:00N 59°42' E 024°10'612.8
2018-Apr-22 04:30N 59°40' E 023°58'612.9
2018-Apr-22 04:00N 59°38' E 023°46'713.1
2018-Apr-22 03:30N 59°36' E 023°34'713.2
2018-Apr-22 03:00N 59°34' E 023°21'4912.3
2018-Apr-21 23:03N 59°28' E 021°46'112.8
2018-Apr-21 23:00N 59°29' E 021°45'612.8
2018-Apr-21 22:30N 59°31' E 021°33'613.0
2018-Apr-21 22:01N 59°36' E 021°26'612.7
2018-Apr-21 21:30N 59°42' E 021°21'611.6
2018-Apr-21 21:00N 59°48' E 021°20'612.6
2018-Apr-21 20:31N 59°53' E 021°29'713.1
2018-Apr-21 20:00N 59°57' E 021°40'612.8
2018-Apr-21 19:30N 60°03' E 021°41'613.0
2018-Apr-21 19:00N 60°09' E 021°42'510.8
2018-Apr-21 18:30N 60°14' E 021°47'  
2018-Apr-19 11:21N 60°24' E 019°01'615.3
2018-Apr-19 10:58N 60°19' E 019°01'715.0
2018-Apr-19 10:30N 60°12' E 019°06'714.8
2018-Apr-19 10:01N 60°06' E 019°15'714.9
2018-Apr-19 09:31N 60°01' E 019°24'714.7
2018-Apr-19 09:00N 59°55' E 019°34'714.7
2018-Apr-19 08:31N 59°49' E 019°43'4113.8
2018-Apr-19 05:33N 59°34' E 020°58'114.7
2018-Apr-19 05:30N 59°33' E 020°59'714.5
2018-Apr-19 05:01N 59°32' E 021°13'714.8
2018-Apr-19 04:31N 59°30' E 021°27'714.7
2018-Apr-19 04:01N 59°30' E 021°42'714.9
2018-Apr-19 03:30N 59°31' E 021°56'714.6
2018-Apr-19 03:00N 59°32' E 022°10'814.8
2018-Apr-19 02:28N 59°34' E 022°26'2014.7
2018-Apr-19 01:07N 59°37' E 023°04'214.8
2018-Apr-19 01:01N 59°38' E 023°07'714.8
2018-Apr-19 00:31N 59°39' E 023°22'814.9
2018-Apr-19 00:00N 59°41' E 023°36'714.9
2018-Apr-18 23:31N 59°43' E 023°50'714.7
2018-Apr-18 23:01N 59°45' E 024°04'815.0
2018-Apr-18 22:30N 59°47' E 024°19'714.9
2018-Apr-18 22:01N 59°49' E 024°33'714.7
2018-Apr-18 21:31N 59°50' E 024°47'714.8
2018-Apr-18 21:00N 59°52' E 025°02'714.7
2018-Apr-18 20:30N 59°54' E 025°16'714.9
2018-Apr-18 20:00N 59°58' E 025°28'612.3
2018-Apr-18 19:30N 60°04' E 025°34'815.3
2018-Apr-18 19:01N 60°11' E 025°36'4 0.1
2018-Apr-17 18:12N 60°15' E 025°34'316.0
2018-Apr-17 18:00N 60°12' E 025°36'816.3
2018-Apr-17 17:30N 60°04' E 025°35'510.0
2018-Apr-17 17:00N 59°59' E 025°31'510.5
2018-Apr-17 16:31N 59°55' E 025°24'611.3
2018-Apr-17 16:01N 59°51' E 025°16'611.0
2018-Apr-17 15:30N 59°48' E 025°07'611.6
2018-Apr-17 15:00N 59°47' E 024°55'611.5
2018-Apr-17 14:31N 59°46' E 024°44'611.8
2018-Apr-17 14:00N 59°45' E 024°33'611.7
2018-Apr-17 13:31N 59°43' E 024°21'612.1
2018-Apr-17 13:00N 59°41' E 024°10'612.0
2018-Apr-17 12:30N 59°40' E 023°58'612.3
2018-Apr-17 12:01N 59°38' E 023°47'612.4
2018-Apr-17 11:31N 59°36' E 023°36'612.2
2018-Apr-17 11:00N 59°34' E 023°24'612.1
2018-Apr-17 10:30N 59°32' E 023°12'2012.0
2018-Apr-17 08:48N 59°26' E 022°34'2611.5
2018-Apr-17 06:33N 59°28' E 021°43'111.9
2018-Apr-17 06:30N 59°28' E 021°42'611.9
2018-Apr-17 06:00N 59°30' E 021°31'611.7
2018-Apr-17 05:30N 59°32' E 021°20'611.9
2018-Apr-17 05:00N 59°33' E 021°09'4311.4
2018-Apr-17 01:12N 59°44' E 019°46'211.9
2018-Apr-17 01:00N 59°46' E 019°42'612.1
2018-Apr-17 00:30N 59°51' E 019°35'612.0
2018-Apr-17 00:00N 59°55' E 019°27'612.1
2018-Apr-16 23:30N 59°60' E 019°19'612.0
2018-Apr-16 23:00N 60°04' E 019°11'612.2
2018-Apr-16 22:30N 60°09' E 019°04'611.6
2018-Apr-16 22:00N 60°15' E 019°01'612.0
2018-Apr-16 21:30N 60°21' E 018°60'1911.8
2018-Apr-16 19:51N 60°40' E 019°03'  
Track history (hours):
 
Tides and Currents Weather Stations Pressure Air Temp Water Temp Dewpoint Dewpoint Depression Visibility Wind Speed Wind Dir Waves Ship Positions

Suula

Last reported at 2018-Apr-24 23:26 UTC. Time now 2018-Apr-26 15:35 UTC.
Position N 60°24' E 019°02'.

Length 140 m; draft 6.5 m.

Type: Tanker. MMSI: 230956996.

Date/timePositionNaut miles runAvg speedWind from/ knotsBaromVisibWave heightAir tempDewpointWater temp
2018-Apr-24 23:26N 60°24' E 019°02'512.7
2018-Apr-24 23:01N 60°19' E 019°01'612.7
2018-Apr-24 22:30N 60°13' E 019°04'612.7
2018-Apr-24 22:01N 60°08' E 019°13'612.6
2018-Apr-24 21:30N 60°03' E 019°21'612.6
2018-Apr-24 21:00N 59°58' E 019°29'612.7
2018-Apr-24 20:30N 59°53' E 019°37'612.6
2018-Apr-24 20:00N 59°48' E 019°45'4211.6
2018-Apr-24 16:22N 59°32' E 021°02'411.9
2018-Apr-24 16:01N 59°32' E 021°11'612.1
2018-Apr-24 15:30N 59°31' E 021°23'612.3
2018-Apr-24 15:00N 59°30' E 021°34'611.9
2018-Apr-24 14:30N 59°30' E 021°46'612.1
2018-Apr-24 14:01N 59°31' E 021°58'612.1
2018-Apr-24 13:31N 59°32' E 022°10'2912.1
2018-Apr-24 11:08N 59°38' E 023°05'212.1
2018-Apr-24 11:00N 59°38' E 023°09'612.2
2018-Apr-24 10:30N 59°39' E 023°20'612.3
2018-Apr-24 10:01N 59°41' E 023°32'612.2
2018-Apr-24 09:30N 59°42' E 023°44'612.3
2018-Apr-24 09:00N 59°44' E 023°56'612.2
2018-Apr-24 08:29N 59°45' E 024°08'612.2
2018-Apr-24 08:00N 59°47' E 024°19'612.3
2018-Apr-24 07:31N 59°48' E 024°31'612.7
2018-Apr-24 07:01N 59°50' E 024°43'712.8
2018-Apr-24 06:29N 59°51' E 024°56'612.9
2018-Apr-24 06:00N 59°52' E 025°08'612.8
2018-Apr-24 05:31N 59°56' E 025°19'612.8
2018-Apr-24 05:01N 59°59' E 025°30'611.1
2018-Apr-24 04:30N 60°04' E 025°35'712.2
2018-Apr-24 03:57N 60°10' E 025°38'5 0.2
2018-Apr-22 16:41N 60°15' E 025°34'413.6
2018-Apr-22 16:24N 60°12' E 025°37'513.8
2018-Apr-22 16:01N 60°07' E 025°35'611.1
2018-Apr-22 15:30N 60°01' E 025°30'0 0.7
2018-Apr-22 14:58N 60°01' E 025°30'0 0.1
2018-Apr-22 14:28N 60°01' E 025°29'0 0.0
2018-Apr-22 13:58N 60°01' E 025°29'0 0.0
2018-Apr-22 13:28N 60°01' E 025°29'0 0.1
2018-Apr-22 12:58N 60°01' E 025°29'0 0.1
2018-Apr-22 12:28N 60°01' E 025°29'0 0.0
2018-Apr-22 11:55N 60°01' E 025°29'0 0.0
2018-Apr-22 11:28N 60°01' E 025°29'0 0.0
2018-Apr-22 10:58N 60°01' E 025°29'0 0.0
2018-Apr-22 10:25N 60°01' E 025°29'0 0.0
2018-Apr-22 09:52N 60°01' E 025°29'0 0.1
2018-Apr-22 09:24N 60°01' E 025°29'1 2.1
2018-Apr-22 08:57N 60°00' E 025°29'510.3
2018-Apr-22 08:30N 59°56' E 025°25'611.4
2018-Apr-22 08:00N 59°52' E 025°17'510.8
2018-Apr-22 07:30N 59°49' E 025°09'611.4
2018-Apr-22 07:00N 59°47' E 024°58'611.4
2018-Apr-22 06:30N 59°46' E 024°47'612.3
2018-Apr-22 06:00N 59°45' E 024°35'612.7
2018-Apr-22 05:30N 59°44' E 024°22'612.5
2018-Apr-22 05:00N 59°42' E 024°10'612.8
2018-Apr-22 04:30N 59°40' E 023°58'612.9
2018-Apr-22 04:00N 59°38' E 023°46'713.1
2018-Apr-22 03:30N 59°36' E 023°34'713.2
2018-Apr-22 03:00N 59°34' E 023°21'4912.3
2018-Apr-21 23:03N 59°28' E 021°46'112.8
2018-Apr-21 23:00N 59°29' E 021°45'612.8
2018-Apr-21 22:30N 59°31' E 021°33'613.0
2018-Apr-21 22:01N 59°36' E 021°26'612.7
2018-Apr-21 21:30N 59°42' E 021°21'611.6
2018-Apr-21 21:00N 59°48' E 021°20'612.6
2018-Apr-21 20:31N 59°53' E 021°29'713.1
2018-Apr-21 20:00N 59°57' E 021°40'612.8
2018-Apr-21 19:30N 60°03' E 021°41'613.0
2018-Apr-21 19:00N 60°09' E 021°42'510.8
2018-Apr-21 18:30N 60°14' E 021°47'  
2018-Apr-19 11:21N 60°24' E 019°01'615.3
2018-Apr-19 10:58N 60°19' E 019°01'715.0
2018-Apr-19 10:30N 60°12' E 019°06'714.8
2018-Apr-19 10:01N 60°06' E 019°15'714.9
2018-Apr-19 09:31N 60°01' E 019°24'714.7
2018-Apr-19 09:00N 59°55' E 019°34'714.7
2018-Apr-19 08:31N 59°49' E 019°43'4113.8
2018-Apr-19 05:33N 59°34' E 020°58'114.7
2018-Apr-19 05:30N 59°33' E 020°59'714.5
2018-Apr-19 05:01N 59°32' E 021°13'714.8
2018-Apr-19 04:31N 59°30' E 021°27'714.7
2018-Apr-19 04:01N 59°30' E 021°42'714.9
2018-Apr-19 03:30N 59°31' E 021°56'714.6
2018-Apr-19 03:00N 59°32' E 022°10'814.8
2018-Apr-19 02:28N 59°34' E 022°26'2014.7
2018-Apr-19 01:07N 59°37' E 023°04'214.8
2018-Apr-19 01:01N 59°38' E 023°07'714.8
2018-Apr-19 00:31N 59°39' E 023°22'814.9
2018-Apr-19 00:00N 59°41' E 023°36'714.9
2018-Apr-18 23:31N 59°43' E 023°50'714.7
2018-Apr-18 23:01N 59°45' E 024°04'815.0
2018-Apr-18 22:30N 59°47' E 024°19'714.9
2018-Apr-18 22:01N 59°49' E 024°33'714.7
2018-Apr-18 21:31N 59°50' E 024°47'714.8
2018-Apr-18 21:00N 59°52' E 025°02'714.7
2018-Apr-18 20:30N 59°54' E 025°16'714.9
2018-Apr-18 20:00N 59°58' E 025°28'612.3
2018-Apr-18 19:30N 60°04' E 025°34'815.3
2018-Apr-18 19:01N 60°11' E 025°36'4 0.1
2018-Apr-17 18:12N 60°15' E 025°34'316.0
2018-Apr-17 18:00N 60°12' E 025°36'816.3
2018-Apr-17 17:30N 60°04' E 025°35'510.0
2018-Apr-17 17:00N 59°59' E 025°31'510.5
2018-Apr-17 16:31N 59°55' E 025°24'611.3
2018-Apr-17 16:01N 59°51' E 025°16'611.0
2018-Apr-17 15:30N 59°48' E 025°07'611.6
2018-Apr-17 15:00N 59°47' E 024°55'611.5
2018-Apr-17 14:31N 59°46' E 024°44'611.8
2018-Apr-17 14:00N 59°45' E 024°33'611.7
2018-Apr-17 13:31N 59°43' E 024°21'612.1
2018-Apr-17 13:00N 59°41' E 024°10'612.0
2018-Apr-17 12:30N 59°40' E 023°58'612.3
2018-Apr-17 12:01N 59°38' E 023°47'612.4
2018-Apr-17 11:31N 59°36' E 023°36'612.2
2018-Apr-17 11:00N 59°34' E 023°24'612.1
2018-Apr-17 10:30N 59°32' E 023°12'2012.0
2018-Apr-17 08:48N 59°26' E 022°34'2611.5
2018-Apr-17 06:33N 59°28' E 021°43'111.9
2018-Apr-17 06:30N 59°28' E 021°42'611.9
2018-Apr-17 06:00N 59°30' E 021°31'611.7
2018-Apr-17 05:30N 59°32' E 021°20'611.9
2018-Apr-17 05:00N 59°33' E 021°09'4311.4
2018-Apr-17 01:12N 59°44' E 019°46'211.9
2018-Apr-17 01:00N 59°46' E 019°42'612.1
2018-Apr-17 00:30N 59°51' E 019°35'612.0
2018-Apr-17 00:00N 59°55' E 019°27'612.1
2018-Apr-16 23:30N 59°60' E 019°19'612.0
2018-Apr-16 23:00N 60°04' E 019°11'612.2
2018-Apr-16 22:30N 60°09' E 019°04'611.6
2018-Apr-16 22:00N 60°15' E 019°01'612.0
2018-Apr-16 21:30N 60°21' E 018°60'1911.8
2018-Apr-16 19:51N 60°40' E 019°03'  

Dump ship's entire track history